KTMK

Tillamook Airport

Tillamook, Oregon, USA
METAR KTMK 221835Z AUTO 00000KT 7SM -RA SCT012 BKN022 OVC026 07/06 A3041 RMK AO2 P0002
Observed Flight Rules
Jan-22 @ 18:35 UTC (18 minutes ago) Marginal Visual Flight Rules
Visibility Clouds Conditions
7 miles
  • Scattered at 1,200' AGL
  • Broken at 2,200' AGL
  • Overcast at 2,600' AGL
  • Light Rain
Temperatures Readings Precipitation
Current 7°C / 45°F
Dewpoint 6°C / 43°F
Humidity 93%
Altimeter 30.41" Hg
Pressure 1029.81 hPa
Elevation 11
Current Rain 0.02
METAR KTMK 221835Z AUTO 00000KT 7SM -RA SCT012 BKN022 OVC026 07/06 A3041 RMK AO2 P0002
Observed Flight Rules
Jan-22 @ 18:35 UTC
(18 minutes ago)
MVFR
Clouds
  • Scattered at 1,200' AGL
  • Broken at 2,200' AGL
  • Overcast at 2,600' AGL
Conditions
  • Light Rain
Temperature Dewpoint
7°C / 45°F 6°C / 43°F
Humidity Altimeter Pressure
93% 30.41" Hg 1029.81 hPa
Current Rain
0.02